aviador You're here:

KOLS Decoded Metar

NOGALES in AZ, USA
Report Time2017-08-22 07:54:00
UTC Time2017-08-22 09:01:14
Flight Rules Old
Wind070° at 05 kt
W.Decomp.*RWY 03: 4.4 kt HW 2.3 kt RCW
W.Rank070° ranks 10
Current wind is above 070° avg. (4.7)
Visibility9999 m
Phenomena:N/A
Clouds:Few 110 Hf
Expected CloudBase > 2,800 ft AGL from Temp-Dew spread
CeilingNone
Temp23°C (ISA +16)
Dew Point16°C (65% RH)
QNH1020 hPa
Density Alt5,719 ft
Elevation3,885 ft
Report Wrong Elevation
Raw Report
METAR KOLS 220754Z AUTO 07005KT 10SM FEW110 23/16 A3013 RMK AO2 SLP129
T02330161=

Extra information for KOLS:More info

Metar Taf Metar & Taf Last 4 Metars F.Rules Stats Wind Profile Meteogram Temp Stats Airport Information Weather charts Add Link Nearby VenuesMetar ALERT Operation Metar Decoded Social comments

AIRNAV info for KOLS